createdAt,value
2019-02-10T00:08:21.650Z,58.47
2019-02-10T00:18:26.648Z,60.93
2019-02-10T00:28:31.690Z,64.47
2019-02-10T00:38:36.686Z,69.27
2019-02-10T00:48:41.674Z,70.30
2019-02-10T00:58:46.647Z,67.47
2019-02-10T01:08:51.656Z,66.27
2019-02-10T01:19:04.941Z,62.60
2019-02-10T01:29:09.929Z,72.20
2019-02-10T01:39:15.733Z,62.23
2019-02-10T01:49:20.779Z,59.23
2019-02-10T01:59:25.750Z,64.57
2019-02-10T02:09:30.732Z,63.97
2019-02-10T02:19:35.868Z,68.43
2019-02-10T02:29:40.862Z,57.37
2019-02-10T02:39:45.848Z,55.30
2019-02-10T02:49:50.911Z,55.47
2019-02-10T02:59:55.892Z,61.60
2019-02-10T03:10:00.887Z,67.67
2019-02-10T03:20:08.495Z,70.93
2019-02-10T03:30:14.805Z,62.97
2019-02-10T03:40:19.775Z,58.70
2019-02-10T03:50:25.007Z,58.47
2019-02-10T04:00:30.766Z,68.23
2019-02-10T04:10:35.744Z,62.67
2019-02-10T04:20:40.737Z,59.10
2019-02-10T04:30:45.705Z,66.90
2019-02-10T04:40:50.718Z,62.00
2019-02-10T04:50:55.751Z,61.00
2019-02-10T05:01:00.764Z,65.87
2019-02-10T05:11:05.768Z,74.30
2019-02-10T05:21:10.752Z,91.80
2019-02-10T05:31:15.749Z,81.60
2019-02-10T05:41:20.740Z,93.70
2019-02-10T05:51:26.313Z,93.80
2019-02-10T06:02:04.929Z,108.13
2019-02-10T06:12:11.645Z,94.87
2019-02-10T06:22:16.606Z,116.13
2019-02-10T06:32:21.613Z,129.60
2019-02-10T06:42:26.584Z,133.03
2019-02-10T06:52:34.428Z,131.90
2019-02-10T07:03:18.089Z,123.33
2019-02-10T07:13:35.676Z,108.17
2019-02-10T07:24:00.309Z,117.77
2019-02-10T07:34:33.973Z,234.53
2019-02-10T07:44:51.180Z,130.90
2019-02-10T07:55:15.293Z,144.10
2019-02-10T08:05:38.542Z,118.20
2019-02-10T08:15:52.461Z,105.90
2019-02-10T08:26:06.164Z,116.10
2019-02-10T08:36:30.747Z,111.87
2019-02-10T08:46:57.041Z,90.97
2019-02-10T08:57:01.984Z,99.07
2019-02-10T09:07:06.971Z,62.83
2019-02-10T09:17:11.998Z,64.97
2019-02-10T09:27:17.074Z,63.93
2019-02-10T09:37:22.772Z,58.53
2019-02-10T09:47:27.954Z,65.70
2019-02-10T09:57:33.054Z,59.70
2019-02-10T10:07:38.174Z,56.00
2019-02-10T10:17:44.236Z,55.37
2019-02-10T10:27:49.193Z,62.03
2019-02-10T10:37:54.282Z,56.37
2019-02-10T10:47:59.483Z,54.17
2019-02-10T10:58:04.566Z,63.80
2019-02-10T11:08:09.724Z,72.53
2019-02-10T11:18:16.693Z,72.60
2019-02-10T11:28:21.695Z,69.83
2019-02-10T11:38:26.674Z,67.60
2019-02-10T11:48:33.874Z,63.27
2019-02-10T11:58:38.931Z,66.53
2019-02-10T12:08:44.221Z,79.70
2019-02-10T12:18:50.005Z,65.23
2019-02-10T12:28:55.295Z,65.57
2019-02-10T12:39:00.605Z,67.53
2019-02-10T12:49:07.635Z,117.03
2019-02-10T12:59:12.916Z,100.00
2019-02-10T13:09:18.202Z,127.23
2019-02-10T13:19:23.484Z,103.57
2019-02-10T13:29:28.919Z,51.30
2019-02-10T13:39:34.198Z,45.27
2019-02-10T13:49:39.478Z,35.60
2019-02-10T13:59:44.775Z,42.03
2019-02-10T14:09:50.115Z,46.20
2019-02-10T14:19:55.575Z,61.53
2019-02-10T14:30:00.749Z,62.47
2019-02-10T14:40:07.266Z,46.07
2019-02-10T14:50:14.800Z,59.60
2019-02-10T15:00:20.120Z,48.67
2019-02-10T15:10:32.121Z,58.60
2019-02-10T15:20:39.079Z,58.97
2019-02-10T15:30:44.600Z,50.77
2019-02-10T15:40:50.315Z,41.93
2019-02-10T15:50:56.146Z,55.50
2019-02-10T16:01:01.598Z,164.03
2019-02-10T16:11:06.964Z,93.87
2019-02-10T16:21:12.473Z,68.50
2019-02-10T16:31:17.960Z,57.37
2019-02-10T16:41:23.474Z,57.07
2019-02-10T16:51:30.116Z,54.37
2019-02-10T17:01:35.679Z,67.00
2019-02-10T17:11:41.106Z,55.90
2019-02-10T17:21:46.727Z,59.90
2019-02-10T17:31:52.098Z,69.03
2019-02-10T17:41:57.544Z,89.97
2019-02-10T17:52:04.837Z,78.70
2019-02-10T18:02:10.230Z,65.87
2019-02-10T18:12:15.286Z,70.87
2019-02-10T18:22:22.121Z,72.53
2019-02-10T18:32:37.917Z,66.17
2019-02-10T18:42:48.163Z,66.63
2019-02-10T18:52:56.730Z,59.30
2019-02-10T19:03:06.534Z,72.13
2019-02-10T19:13:13.549Z,73.27
2019-02-10T19:23:36.656Z,75.17
2019-02-10T19:33:51.003Z,84.37
2019-02-10T19:44:12.993Z,80.80
2019-02-10T19:54:22.649Z,66.07
2019-02-10T20:04:32.478Z,60.63
2019-02-10T20:14:48.458Z,75.07
2019-02-10T20:25:02.445Z,50.73
2019-02-10T20:35:19.239Z,46.67
2019-02-10T20:45:42.506Z,48.77
2019-02-10T20:55:52.365Z,48.83
2019-02-10T21:06:15.695Z,49.97
2019-02-10T21:16:37.843Z,62.50
2019-02-10T21:26:53.971Z,69.50
2019-02-10T21:37:13.227Z,72.33
2019-02-10T21:47:37.854Z,67.70
2019-02-10T21:57:43.055Z,72.03
2019-02-10T22:07:48.208Z,73.13
2019-02-10T22:17:53.473Z,56.63
2019-02-10T22:27:58.592Z,53.67
2019-02-10T22:38:03.672Z,55.23
2019-02-10T22:48:08.713Z,59.37
2019-02-10T22:58:13.668Z,57.97
2019-02-10T23:08:18.663Z,62.60
2019-02-10T23:18:23.653Z,55.13
2019-02-10T23:28:31.733Z,62.03
2019-02-10T23:38:36.759Z,55.77
2019-02-10T23:48:41.823Z,48.80
2019-02-10T23:58:46.799Z,48.73
